createdAt,value
2019-01-24T00:00:17.637Z,83.30
2019-01-24T00:02:40.045Z,83.60
2019-01-24T00:05:01.248Z,83.40
2019-01-24T00:07:22.446Z,83.70
2019-01-24T00:09:43.679Z,83.90
2019-01-24T00:12:04.893Z,84.30
2019-01-24T00:14:26.096Z,84.50
2019-01-24T00:16:47.399Z,84.40
2019-01-24T00:19:08.612Z,84.70
2019-01-24T00:21:29.930Z,84.40
2019-01-24T00:23:51.140Z,84.20
2019-01-24T00:26:12.568Z,83.60
2019-01-24T00:28:34.793Z,83.70
2019-01-24T00:30:55.990Z,83.40
2019-01-24T00:33:17.181Z,83.90
2019-01-24T00:35:39.674Z,83.60
2019-01-24T00:38:00.923Z,83.60
2019-01-24T00:40:22.107Z,83.40
2019-01-24T00:42:43.319Z,83.30
2019-01-24T00:45:06.439Z,83.20
2019-01-24T00:47:27.683Z,83.20
2019-01-24T00:49:48.864Z,84.20
2019-01-24T00:52:10.068Z,83.40
2019-01-24T00:54:31.278Z,82.70
2019-01-24T00:56:52.474Z,82.30
2019-01-24T00:59:13.686Z,81.80
2019-01-24T01:01:34.873Z,80.90
2019-01-24T01:03:56.428Z,80.70
2019-01-24T01:06:17.722Z,80.60
2019-01-24T01:08:38.928Z,79.30
2019-01-24T01:11:00.302Z,79.00
2019-01-24T01:13:21.512Z,79.10
2019-01-24T01:15:42.702Z,78.60
2019-01-24T01:18:03.980Z,78.10
2019-01-24T01:20:25.162Z,78.70
2019-01-24T01:22:46.361Z,78.80
2019-01-24T01:25:09.877Z,78.70
2019-01-24T01:27:31.070Z,79.00
2019-01-24T01:29:52.289Z,78.90
2019-01-24T01:32:13.482Z,79.10
2019-01-24T01:34:36.367Z,79.30
2019-01-24T01:36:57.817Z,79.20
2019-01-24T01:39:19.014Z,79.30
2019-01-24T01:41:40.228Z,79.30
2019-01-24T01:44:01.435Z,79.40
2019-01-24T01:46:22.635Z,80.50
2019-01-24T01:48:43.838Z,79.30
2019-01-24T01:51:05.034Z,79.70
2019-01-24T01:53:26.222Z,79.50
2019-01-24T01:55:47.451Z,79.00
2019-01-24T01:58:28.614Z,79.30
2019-01-24T02:00:49.818Z,79.60
2019-01-24T02:03:11.019Z,80.00
2019-01-24T02:05:32.223Z,79.80
2019-01-24T02:07:53.434Z,79.80
2019-01-24T02:10:17.053Z,80.00
2019-01-24T02:12:38.263Z,80.20
2019-01-24T02:14:59.490Z,80.10
2019-01-24T02:17:20.724Z,79.80
2019-01-24T02:19:42.028Z,79.30
2019-01-24T02:22:03.255Z,79.70
2019-01-24T02:24:24.458Z,79.80
2019-01-24T02:26:45.668Z,80.10
2019-01-24T02:29:07.138Z,80.30
2019-01-24T02:31:28.457Z,79.90
2019-01-24T02:33:49.658Z,79.30
2019-01-24T02:36:10.870Z,79.50
2019-01-24T02:38:32.071Z,79.50
2019-01-24T02:40:53.305Z,79.20
2019-01-24T02:43:14.499Z,79.50
2019-01-24T02:45:35.921Z,78.90
2019-01-24T02:47:57.123Z,79.50
2019-01-24T02:50:20.607Z,79.40
2019-01-24T02:52:41.936Z,79.10
2019-01-24T02:55:23.037Z,79.30
2019-01-24T02:57:44.250Z,78.70
2019-01-24T03:00:11.917Z,78.80
2019-01-24T03:02:33.127Z,78.10
2019-01-24T03:04:57.072Z,78.00
2019-01-24T03:07:17.458Z,78.30
2019-01-24T03:09:38.744Z,77.70
2019-01-24T03:11:59.963Z,77.90
2019-01-24T03:14:21.168Z,77.70
2019-01-24T03:16:42.390Z,77.10
2019-01-24T03:19:03.654Z,76.80
2019-01-24T03:21:24.866Z,76.70
2019-01-24T03:23:46.049Z,76.70
2019-01-24T03:26:07.271Z,76.90
2019-01-24T03:28:28.459Z,77.50
2019-01-24T03:30:49.669Z,78.10
2019-01-24T03:33:11.954Z,77.70
2019-01-24T03:35:33.177Z,77.50
2019-01-24T03:37:54.357Z,77.90
2019-01-24T03:40:15.613Z,76.50
2019-01-24T03:42:36.885Z,76.30
2019-01-24T03:44:58.085Z,76.40
2019-01-24T03:47:19.282Z,76.70
2019-01-24T03:49:40.513Z,77.20
2019-01-24T03:52:01.778Z,77.30
2019-01-24T03:54:22.968Z,77.30
2019-01-24T03:56:44.177Z,77.00
2019-01-24T03:59:05.394Z,77.20
2019-01-24T04:01:26.592Z,77.30
2019-01-24T04:03:47.807Z,77.50
2019-01-24T04:06:09.012Z,77.40
2019-01-24T04:08:30.205Z,77.60
2019-01-24T04:10:51.420Z,77.40
2019-01-24T04:13:12.618Z,77.80
2019-01-24T04:15:33.924Z,77.80
2019-01-24T04:17:55.123Z,78.00
2019-01-24T04:20:16.317Z,78.10
2019-01-24T04:22:37.542Z,77.60
2019-01-24T04:24:58.812Z,77.80
2019-01-24T04:27:20.034Z,78.00
2019-01-24T04:29:41.218Z,78.00
2019-01-24T04:32:02.442Z,77.90
2019-01-24T04:34:23.704Z,77.20
2019-01-24T04:36:44.924Z,77.10
2019-01-24T04:39:06.227Z,77.00
2019-01-24T04:41:27.428Z,77.10
2019-01-24T04:43:48.616Z,77.80
2019-01-24T04:46:09.850Z,77.40
2019-01-24T04:48:31.055Z,77.20
2019-01-24T04:50:52.969Z,77.90
2019-01-24T04:53:14.343Z,77.50
2019-01-24T04:55:35.568Z,76.70
2019-01-24T04:57:56.896Z,76.20
2019-01-24T05:00:20.694Z,75.80
2019-01-24T05:02:42.016Z,75.50
2019-01-24T05:05:03.537Z,75.00
2019-01-24T05:07:25.136Z,75.40
2019-01-24T05:09:46.500Z,75.20
2019-01-24T05:12:07.715Z,75.30
2019-01-24T05:14:28.914Z,75.10
2019-01-24T05:16:50.203Z,75.40
2019-01-24T05:19:11.424Z,75.90
2019-01-24T05:21:33.669Z,76.10
2019-01-24T05:23:54.975Z,75.80
2019-01-24T05:26:16.227Z,76.30
2019-01-24T05:28:37.584Z,75.60
2019-01-24T05:30:58.892Z,75.30
2019-01-24T05:33:20.236Z,75.70
2019-01-24T05:35:41.439Z,75.80
2019-01-24T05:38:02.742Z,75.80
2019-01-24T05:40:24.151Z,76.10
2019-01-24T05:42:45.482Z,76.10
2019-01-24T05:45:12.145Z,75.90
2019-01-24T05:47:33.472Z,76.00
2019-01-24T05:49:54.776Z,76.10
2019-01-24T05:52:19.771Z,76.30
2019-01-24T05:54:39.114Z,75.80
2019-01-24T05:57:00.358Z,76.00
2019-01-24T05:59:21.558Z,75.30
2019-01-24T06:01:43.370Z,75.20
2019-01-24T06:04:05.888Z,75.00
2019-01-24T06:06:27.098Z,75.00
2019-01-24T06:08:48.307Z,74.70
2019-01-24T06:11:09.495Z,75.20
2019-01-24T06:13:30.709Z,75.00
2019-01-24T06:15:51.918Z,74.30
2019-01-24T06:18:13.168Z,74.00
2019-01-24T06:20:34.369Z,73.40
2019-01-24T06:22:55.568Z,73.60
2019-01-24T06:25:16.790Z,74.30
2019-01-24T06:27:38.120Z,74.40
2019-01-24T06:29:59.320Z,74.30
2019-01-24T06:32:20.813Z,73.80
2019-01-24T06:34:42.021Z,73.30
2019-01-24T06:37:03.244Z,73.20
2019-01-24T06:39:24.450Z,73.70
2019-01-24T06:41:45.654Z,74.10
2019-01-24T06:44:06.893Z,74.90
2019-01-24T06:46:28.227Z,73.30
2019-01-24T06:48:49.446Z,73.70
2019-01-24T06:51:10.647Z,74.10
2019-01-24T06:53:31.860Z,74.00
2019-01-24T06:55:53.067Z,74.30
2019-01-24T06:58:14.280Z,73.40
2019-01-24T07:00:35.472Z,72.80
2019-01-24T07:02:56.710Z,72.50
2019-01-24T07:05:18.024Z,72.60
2019-01-24T07:07:39.339Z,72.80
2019-01-24T07:10:04.024Z,72.80
2019-01-24T07:12:25.258Z,72.60
2019-01-24T07:14:46.526Z,71.90
2019-01-24T07:17:07.734Z,72.00
2019-01-24T07:19:28.941Z,72.00
2019-01-24T07:21:50.135Z,71.90
2019-01-24T07:24:11.358Z,71.80
2019-01-24T07:26:32.566Z,71.80
2019-01-24T07:28:53.766Z,71.50
2019-01-24T07:31:14.961Z,71.40
2019-01-24T07:33:36.171Z,71.70
2019-01-24T07:36:02.142Z,72.60
2019-01-24T07:38:20.516Z,72.80
2019-01-24T07:40:41.716Z,72.80
2019-01-24T07:43:03.011Z,73.40
2019-01-24T07:45:27.388Z,73.20
2019-01-24T07:47:48.679Z,74.00
2019-01-24T07:50:11.899Z,74.00
2019-01-24T07:52:33.094Z,74.30
2019-01-24T07:54:54.303Z,74.60
2019-01-24T07:57:15.867Z,74.90
2019-01-24T07:59:37.085Z,74.90
2019-01-24T08:01:58.300Z,75.10
2019-01-24T08:04:19.526Z,75.20
2019-01-24T08:06:40.718Z,74.70
2019-01-24T08:09:03.723Z,74.70
2019-01-24T08:11:24.927Z,75.10
2019-01-24T08:13:46.154Z,75.10
2019-01-24T08:16:07.328Z,75.10
2019-01-24T08:18:28.535Z,75.00
2019-01-24T08:20:49.777Z,75.00
2019-01-24T08:23:11.030Z,75.20
2019-01-24T08:25:32.231Z,75.00
2019-01-24T08:27:53.446Z,75.10
2019-01-24T08:30:21.479Z,74.70
2019-01-24T08:32:42.670Z,74.80
2019-01-24T08:35:05.698Z,74.50
2019-01-24T08:37:26.905Z,74.00
2019-01-24T08:39:48.113Z,73.50
2019-01-24T08:42:09.365Z,73.70
2019-01-24T08:44:30.574Z,74.30
2019-01-24T08:46:51.807Z,74.60
2019-01-24T08:49:13.027Z,74.80
2019-01-24T08:51:34.228Z,73.90
2019-01-24T08:53:55.431Z,74.60
2019-01-24T08:56:16.641Z,73.40
2019-01-24T08:58:37.838Z,73.30
2019-01-24T09:00:59.056Z,73.10
2019-01-24T09:03:20.313Z,73.50
2019-01-24T09:05:41.522Z,72.60
2019-01-24T09:08:03.407Z,72.30
2019-01-24T09:10:30.050Z,72.80
2019-01-24T09:12:51.232Z,72.80
2019-01-24T09:15:12.512Z,72.30
2019-01-24T09:17:33.726Z,72.70
2019-01-24T09:19:54.915Z,71.50
2019-01-24T09:22:16.123Z,72.20
2019-01-24T09:24:37.322Z,72.90
2019-01-24T09:26:58.523Z,71.90
2019-01-24T09:29:19.719Z,72.30
2019-01-24T09:31:40.988Z,72.10
2019-01-24T09:34:02.238Z,71.90
2019-01-24T09:36:29.098Z,71.50
2019-01-24T09:38:46.545Z,71.10
2019-01-24T09:41:07.763Z,71.00
2019-01-24T09:43:28.970Z,71.00
2019-01-24T09:45:50.173Z,69.60
2019-01-24T09:48:11.382Z,68.40
2019-01-24T09:50:33.057Z,69.40
2019-01-24T09:52:54.268Z,70.20
2019-01-24T09:55:15.475Z,69.90
2019-01-24T09:57:36.699Z,69.30
2019-01-24T09:59:57.896Z,69.60
2019-01-24T10:02:19.128Z,69.00
2019-01-24T10:04:40.350Z,69.40
2019-01-24T10:07:01.577Z,69.60
2019-01-24T10:09:24.152Z,69.80
2019-01-24T10:11:45.369Z,69.50
2019-01-24T10:14:06.577Z,69.50
2019-01-24T10:16:27.800Z,69.30
2019-01-24T10:18:49.044Z,70.00
2019-01-24T10:21:10.254Z,70.20
2019-01-24T10:23:31.458Z,69.30
2019-01-24T10:25:52.650Z,68.70
2019-01-24T10:28:13.866Z,68.80
2019-01-24T10:30:35.126Z,69.00
2019-01-24T10:32:57.339Z,69.10
2019-01-24T10:35:18.540Z,70.40
2019-01-24T10:37:39.751Z,70.10
2019-01-24T10:40:01.161Z,69.20
2019-01-24T10:42:22.387Z,69.30
2019-01-24T10:44:43.632Z,69.60
2019-01-24T10:47:04.960Z,69.60
2019-01-24T10:49:26.153Z,69.80
2019-01-24T10:51:47.387Z,70.00
2019-01-24T10:54:08.590Z,70.70
2019-01-24T10:56:29.780Z,70.30
2019-01-24T10:58:51.013Z,69.30
2019-01-24T11:01:13.409Z,69.40
2019-01-24T11:03:34.623Z,69.30
2019-01-24T11:05:55.814Z,69.80
2019-01-24T11:08:17.031Z,69.10
2019-01-24T11:10:38.217Z,68.60
2019-01-24T11:12:59.425Z,68.40
2019-01-24T11:15:23.322Z,68.50
2019-01-24T11:17:44.802Z,67.80
2019-01-24T11:20:09.806Z,67.30
2019-01-24T11:22:31.025Z,67.30
2019-01-24T11:24:52.239Z,67.70
2019-01-24T11:27:13.851Z,67.20
2019-01-24T11:29:35.767Z,66.70
2019-01-24T11:31:57.039Z,66.60
2019-01-24T11:34:18.258Z,67.10
2019-01-24T11:36:39.489Z,66.70
2019-01-24T11:39:00.719Z,67.20
2019-01-24T11:41:21.944Z,66.70
2019-01-24T11:43:43.258Z,66.80
2019-01-24T11:46:04.461Z,67.60
2019-01-24T11:48:25.695Z,67.10
2019-01-24T11:50:46.910Z,66.70
2019-01-24T11:53:08.221Z,66.70
2019-01-24T11:55:29.427Z,66.40
2019-01-24T11:57:50.651Z,66.20
2019-01-24T12:00:22.200Z,66.20
2019-01-24T12:02:43.414Z,66.50
2019-01-24T12:05:08.405Z,66.60
2019-01-24T12:07:29.637Z,66.00
2019-01-24T12:09:50.827Z,65.20
2019-01-24T12:12:12.048Z,65.40
2019-01-24T12:14:33.256Z,66.10
2019-01-24T12:16:54.524Z,65.30
2019-01-24T12:19:15.749Z,65.90
2019-01-24T12:21:36.951Z,66.50
2019-01-24T12:23:58.196Z,65.90
2019-01-24T12:26:19.383Z,66.10
2019-01-24T12:28:40.608Z,65.60
2019-01-24T12:31:01.819Z,65.00
2019-01-24T12:33:23.485Z,65.40
2019-01-24T12:35:44.705Z,65.50
2019-01-24T12:38:05.922Z,65.80
2019-01-24T12:40:27.129Z,65.60
2019-01-24T12:42:48.350Z,65.90
2019-01-24T12:45:15.351Z,65.20
2019-01-24T12:47:36.894Z,64.90
2019-01-24T12:49:58.089Z,65.00
2019-01-24T12:52:19.292Z,64.90
2019-01-24T12:54:40.502Z,65.30
2019-01-24T12:57:01.795Z,64.60
2019-01-24T12:59:23.009Z,64.80
2019-01-24T13:01:44.235Z,64.60
2019-01-24T13:04:05.561Z,64.50
2019-01-24T13:06:26.778Z,65.30
2019-01-24T13:08:47.994Z,64.70
2019-01-24T13:11:09.205Z,64.30
2019-01-24T13:13:30.536Z,65.00
2019-01-24T13:15:51.712Z,64.40
2019-01-24T13:18:12.938Z,63.70
2019-01-24T13:20:34.131Z,63.80
2019-01-24T13:22:55.353Z,64.30
2019-01-24T13:25:22.665Z,65.30
2019-01-24T13:27:43.900Z,65.00
2019-01-24T13:30:11.332Z,64.80
2019-01-24T13:32:32.549Z,65.40
2019-01-24T13:34:53.752Z,65.70
2019-01-24T13:37:14.961Z,66.80
2019-01-24T13:39:36.170Z,64.90
2019-01-24T13:41:57.419Z,65.20
2019-01-24T13:44:20.287Z,65.20
2019-01-24T13:46:42.031Z,65.50
2019-01-24T13:49:03.239Z,65.30
2019-01-24T13:51:24.450Z,65.80
2019-01-24T13:53:45.657Z,66.50
2019-01-24T13:56:06.875Z,66.60
2019-01-24T13:58:28.085Z,66.40
2019-01-24T14:00:49.549Z,65.90
2019-01-24T14:03:17.451Z,66.80
2019-01-24T14:05:38.691Z,67.20
2019-01-24T14:07:59.905Z,67.00
2019-01-24T14:10:21.108Z,66.70
2019-01-24T14:12:42.326Z,66.80
2019-01-24T14:15:10.354Z,67.80
2019-01-24T14:17:31.559Z,68.80
2019-01-24T14:19:52.770Z,69.60
2019-01-24T14:22:13.964Z,70.20
2019-01-24T14:24:35.207Z,71.00
2019-01-24T14:26:56.433Z,71.20
2019-01-24T14:29:17.687Z,71.60
2019-01-24T14:31:38.902Z,71.60
2019-01-24T14:34:00.092Z,72.00
2019-01-24T14:36:25.314Z,70.80
2019-01-24T14:38:44.394Z,71.30
2019-01-24T14:41:05.602Z,71.60
2019-01-24T14:43:26.810Z,71.70
2019-01-24T14:45:48.039Z,72.00
2019-01-24T14:48:09.313Z,72.30
2019-01-24T14:50:30.536Z,71.80
2019-01-24T14:52:51.831Z,71.90
2019-01-24T14:55:13.036Z,72.10
2019-01-24T14:57:34.236Z,72.20
2019-01-24T14:59:55.481Z,72.70
2019-01-24T15:02:16.691Z,72.60
2019-01-24T15:04:37.915Z,72.80
2019-01-24T15:06:59.113Z,74.00
2019-01-24T15:09:20.363Z,73.50
2019-01-24T15:11:41.681Z,73.70
2019-01-24T15:14:02.883Z,73.80
2019-01-24T15:16:24.102Z,74.40
2019-01-24T15:18:45.424Z,74.20
2019-01-24T15:21:06.663Z,74.50
2019-01-24T15:23:49.422Z,74.60
2019-01-24T15:26:10.672Z,74.60
2019-01-24T15:28:31.917Z,75.10
2019-01-24T15:30:53.215Z,76.40
2019-01-24T15:33:14.429Z,75.80
2019-01-24T15:36:11.372Z,76.30
2019-01-24T15:38:32.570Z,76.80
2019-01-24T15:41:06.073Z,77.30
2019-01-24T15:43:27.266Z,77.30
2019-01-24T15:45:48.481Z,77.70
2019-01-24T15:48:09.680Z,77.40
2019-01-24T15:50:34.070Z,78.10
2019-01-24T15:52:55.300Z,77.80
2019-01-24T15:55:16.646Z,77.40
2019-01-24T15:57:37.913Z,77.90
2019-01-24T15:59:59.138Z,78.30
2019-01-24T16:02:20.351Z,78.70
2019-01-24T16:04:41.650Z,78.60
2019-01-24T16:07:02.889Z,78.50
2019-01-24T16:09:24.172Z,78.40
2019-01-24T16:11:45.428Z,79.00
2019-01-24T16:14:08.077Z,78.60
2019-01-24T16:16:29.354Z,78.60
2019-01-24T16:18:50.847Z,78.60
2019-01-24T16:21:12.207Z,78.70
2019-01-24T16:23:33.406Z,78.90
2019-01-24T16:25:54.637Z,79.30
2019-01-24T16:28:16.036Z,79.50
2019-01-24T16:30:37.269Z,79.50
2019-01-24T16:32:58.828Z,79.30
2019-01-24T16:35:20.131Z,79.60
2019-01-24T16:37:41.758Z,79.30
2019-01-24T16:40:07.058Z,79.10
2019-01-24T16:42:28.619Z,79.60
2019-01-24T16:44:50.344Z,79.20
2019-01-24T16:47:11.770Z,79.00
2019-01-24T16:49:33.112Z,79.20
2019-01-24T16:51:57.425Z,79.60
2019-01-24T16:54:18.771Z,79.60
2019-01-24T16:56:40.217Z,79.60
2019-01-24T16:59:01.809Z,79.80
2019-01-24T17:01:23.478Z,79.80
2019-01-24T17:03:44.846Z,79.90
2019-01-24T17:06:06.498Z,79.80
2019-01-24T17:08:27.797Z,80.30
2019-01-24T17:10:49.119Z,80.90
2019-01-24T17:13:10.413Z,81.30
2019-01-24T17:15:31.640Z,80.90
2019-01-24T17:17:54.220Z,81.40
2019-01-24T17:20:26.824Z,81.70
2019-01-24T17:22:48.607Z,82.50
2019-01-24T17:25:11.921Z,83.60
2019-01-24T17:27:33.247Z,83.90
2019-01-24T17:29:55.491Z,83.90
2019-01-24T17:32:17.130Z,84.10
2019-01-24T17:34:38.488Z,83.50
2019-01-24T17:36:59.797Z,83.60
2019-01-24T17:39:20.994Z,83.50
2019-01-24T17:41:42.214Z,83.30
2019-01-24T17:44:04.410Z,83.70
2019-01-24T17:46:25.653Z,83.90
2019-01-24T17:48:47.180Z,84.10
2019-01-24T17:51:08.605Z,84.00
2019-01-24T17:53:30.199Z,84.10
2019-01-24T17:55:51.415Z,83.70
2019-01-24T17:58:12.660Z,83.90
2019-01-24T18:00:35.790Z,84.00
2019-01-24T18:02:57.007Z,84.20
2019-01-24T18:05:18.310Z,84.30
2019-01-24T18:07:39.734Z,84.80
2019-01-24T18:10:00.981Z,84.80
2019-01-24T18:12:22.337Z,84.70
2019-01-24T18:14:43.563Z,84.80
2019-01-24T18:17:04.766Z,84.70
2019-01-24T18:19:25.984Z,84.70
2019-01-24T18:21:47.205Z,84.80
2019-01-24T18:24:08.421Z,84.30
2019-01-24T18:26:29.609Z,84.70
2019-01-24T18:28:50.813Z,85.00
2019-01-24T18:31:12.028Z,84.80
2019-01-24T18:33:33.255Z,84.30
2019-01-24T18:35:54.524Z,84.00
2019-01-24T18:38:15.772Z,83.90
2019-01-24T18:40:37.054Z,84.00
2019-01-24T18:42:58.356Z,84.20
2019-01-24T18:45:29.003Z,84.50
2019-01-24T18:47:50.346Z,84.50
2019-01-24T18:50:19.737Z,84.30
2019-01-24T18:52:40.935Z,84.60
2019-01-24T18:55:02.760Z,84.10
2019-01-24T18:57:23.966Z,84.20
2019-01-24T18:59:45.692Z,84.30
2019-01-24T19:02:07.135Z,84.70
2019-01-24T19:04:28.422Z,84.90
2019-01-24T19:06:49.687Z,84.30
2019-01-24T19:09:10.912Z,84.30
2019-01-24T19:11:32.119Z,84.20
2019-01-24T19:13:53.330Z,84.60
2019-01-24T19:16:14.547Z,85.00
2019-01-24T19:18:36.042Z,85.10
2019-01-24T19:20:57.453Z,84.70
2019-01-24T19:23:18.711Z,84.30
2019-01-24T19:25:39.988Z,84.30
2019-01-24T19:28:03.204Z,84.30
2019-01-24T19:30:30.599Z,84.50
2019-01-24T19:32:51.816Z,84.30
2019-01-24T19:35:13.159Z,83.60
2019-01-24T19:37:34.377Z,82.90
2019-01-24T19:39:55.580Z,82.70
2019-01-24T19:42:16.919Z,82.30
2019-01-24T19:44:38.146Z,82.60
2019-01-24T19:46:59.371Z,83.10
2019-01-24T19:49:20.594Z,83.70
2019-01-24T19:51:41.838Z,83.50
2019-01-24T19:54:04.256Z,83.40
2019-01-24T19:56:25.566Z,83.10
2019-01-24T19:58:46.797Z,82.90
2019-01-24T20:01:23.720Z,83.20
2019-01-24T20:03:45.001Z,82.60
2019-01-24T20:06:06.294Z,82.60
2019-01-24T20:08:27.494Z,82.80
2019-01-24T20:10:48.691Z,82.50
2019-01-24T20:13:10.313Z,81.40
2019-01-24T20:15:31.792Z,81.20
2019-01-24T20:17:55.482Z,77.80
2019-01-24T20:20:17.391Z,74.60
2019-01-24T20:22:38.746Z,73.30
2019-01-24T20:25:00.118Z,73.50
2019-01-24T20:27:21.786Z,72.20
2019-01-24T20:29:43.234Z,71.10
2019-01-24T20:32:04.485Z,70.20
2019-01-24T20:34:25.872Z,70.40
2019-01-24T20:36:47.171Z,69.00
2019-01-24T20:39:08.406Z,68.20
2019-01-24T20:41:29.929Z,66.10
2019-01-24T20:43:54.274Z,65.70
2019-01-24T20:46:15.501Z,65.60
2019-01-24T20:48:36.722Z,65.70
2019-01-24T20:50:57.933Z,65.00
2019-01-24T20:53:19.129Z,63.80
2019-01-24T20:56:02.414Z,64.30
2019-01-24T20:58:24.008Z,65.10
2019-01-24T21:00:45.285Z,63.60
2019-01-24T21:03:06.516Z,62.70
2019-01-24T21:05:27.718Z,62.90
2019-01-24T21:07:54.766Z,62.60
2019-01-24T21:10:21.798Z,62.40
2019-01-24T21:12:43.001Z,62.90
2019-01-24T21:15:07.394Z,62.50
2019-01-24T21:17:28.678Z,63.20
2019-01-24T21:19:49.866Z,63.40
2019-01-24T21:22:22.344Z,62.30
2019-01-24T21:24:43.661Z,62.00
2019-01-24T21:27:04.878Z,62.60
2019-01-24T21:29:27.164Z,63.00
2019-01-24T21:31:48.399Z,62.80
2019-01-24T21:34:09.583Z,62.00
2019-01-24T21:36:30.816Z,62.10
2019-01-24T21:38:52.036Z,62.40
2019-01-24T21:41:13.236Z,62.30
2019-01-24T21:43:34.738Z,64.60
2019-01-24T21:45:55.995Z,62.00
2019-01-24T21:48:17.225Z,61.60
2019-01-24T21:50:44.511Z,61.90
2019-01-24T21:53:07.032Z,63.10
2019-01-24T21:55:28.668Z,62.80
2019-01-24T21:57:49.966Z,62.90
2019-01-24T22:00:14.281Z,62.80
2019-01-24T22:02:35.615Z,63.60
2019-01-24T22:04:56.814Z,62.70
2019-01-24T22:07:18.018Z,63.20
2019-01-24T22:09:39.278Z,63.80
2019-01-24T22:12:00.582Z,64.50
2019-01-24T22:14:22.879Z,65.50
2019-01-24T22:16:44.101Z,65.90
2019-01-24T22:19:05.402Z,65.60
2019-01-24T22:21:26.722Z,65.30
2019-01-24T22:23:50.034Z,65.50
2019-01-24T22:26:11.235Z,65.50
2019-01-24T22:28:32.466Z,65.90
2019-01-24T22:30:54.770Z,64.90
2019-01-24T22:33:15.999Z,64.90
2019-01-24T22:35:37.182Z,65.30
2019-01-24T22:37:58.411Z,64.60
2019-01-24T22:40:19.615Z,64.90
2019-01-24T22:42:40.931Z,65.70
2019-01-24T22:45:02.384Z,65.30
2019-01-24T22:47:23.586Z,64.30
2019-01-24T22:49:44.806Z,64.60
2019-01-24T22:52:06.027Z,64.00
2019-01-24T22:54:28.050Z,63.50
2019-01-24T22:56:49.314Z,63.40
2019-01-24T22:59:10.504Z,62.60
2019-01-24T23:01:35.527Z,62.10
2019-01-24T23:03:57.164Z,61.80
2019-01-24T23:06:18.380Z,61.80
2019-01-24T23:08:41.842Z,62.20
2019-01-24T23:11:07.538Z,62.30
2019-01-24T23:13:38.052Z,62.60
2019-01-24T23:16:23.946Z,62.70
2019-01-24T23:18:45.151Z,62.50
2019-01-24T23:21:10.510Z,62.80
2019-01-24T23:23:31.776Z,62.30
2019-01-24T23:25:53.059Z,61.90
2019-01-24T23:28:14.871Z,61.80
2019-01-24T23:30:36.124Z,61.80
2019-01-24T23:32:57.321Z,61.80
2019-01-24T23:35:18.542Z,61.50
2019-01-24T23:37:40.007Z,61.60
2019-01-24T23:40:02.515Z,61.20
2019-01-24T23:42:23.718Z,61.80
2019-01-24T23:44:44.946Z,61.60
2019-01-24T23:47:06.141Z,61.70
2019-01-24T23:49:27.355Z,62.20
2019-01-24T23:51:48.559Z,61.90
2019-01-24T23:54:09.768Z,61.90
2019-01-24T23:56:30.963Z,62.50
2019-01-24T23:58:52.180Z,62.30
